createdAt,value
2023-04-05T00:01:13.098Z,101103.06
2023-04-05T00:03:47.546Z,101091.31
2023-04-05T00:06:22.780Z,101090.19
2023-04-05T00:08:55.608Z,101097.00
2023-04-05T00:11:31.616Z,101088.88
2023-04-05T00:14:03.847Z,101099.75
2023-04-05T00:16:37.321Z,101092.50
2023-04-05T00:19:08.100Z,101094.88
2023-04-05T00:21:38.251Z,101102.53
2023-04-05T00:24:09.539Z,101099.72
2023-04-05T00:26:40.261Z,101107.38
2023-04-05T00:29:16.339Z,101107.38
2023-04-05T00:31:46.877Z,101107.72
2023-04-05T00:34:20.438Z,101107.38
2023-04-05T00:36:50.976Z,101109.72
2023-04-05T00:39:24.629Z,101110.19
2023-04-05T00:41:55.395Z,101104.84
2023-04-05T00:44:29.040Z,101109.72
2023-04-05T00:47:01.532Z,101106.06
2023-04-05T00:49:35.022Z,101099.22
2023-04-05T00:52:05.184Z,101088.38
2023-04-05T00:54:38.265Z,101095.63
2023-04-05T00:57:11.514Z,101089.09
2023-04-05T00:59:45.426Z,101085.41
2023-04-05T01:02:32.147Z,101087.38
2023-04-05T01:05:38.557Z,101083.81
2023-04-05T01:08:30.835Z,101085.44
2023-04-05T01:11:08.625Z,101089.44
2023-04-05T01:13:44.850Z,101084.66
2023-04-05T01:16:15.179Z,101078.56
2023-04-05T01:18:56.407Z,101085.41
2023-04-05T01:21:30.138Z,101093.09
2023-04-05T01:24:18.830Z,101085.00
2023-04-05T01:27:06.969Z,101085.75
2023-04-05T01:29:47.617Z,101092.22
2023-04-05T01:32:24.352Z,101078.88
2023-04-05T01:35:15.523Z,101096.19
2023-04-05T01:37:51.734Z,101078.81
2023-04-05T01:40:24.784Z,101084.44
2023-04-05T01:42:57.390Z,101082.44
2023-04-05T01:45:31.914Z,101085.66
2023-04-05T01:48:01.656Z,101082.78
2023-04-05T01:50:33.810Z,101072.31
2023-04-05T01:53:01.460Z,101074.69
2023-04-05T01:55:28.986Z,101075.88
2023-04-05T01:57:57.684Z,101076.69
2023-04-05T02:00:31.123Z,101084.78
2023-04-05T02:03:01.941Z,101067.38
2023-04-05T02:05:35.094Z,101074.63
2023-04-05T02:08:08.045Z,101077.91
2023-04-05T02:10:35.847Z,101072.25
2023-04-05T02:13:06.631Z,101075.03
2023-04-05T02:15:45.144Z,101076.63
2023-04-05T02:18:22.438Z,101075.03
2023-04-05T02:20:51.330Z,101077.38
2023-04-05T02:23:21.947Z,101083.47
2023-04-05T02:25:56.807Z,101075.44
2023-04-05T02:28:28.100Z,101075.78
2023-04-05T02:31:00.945Z,101074.91
2023-04-05T02:33:29.693Z,101072.44
2023-04-05T02:36:06.814Z,101077.34
2023-04-05T02:38:37.854Z,101081.28
2023-04-05T02:41:11.649Z,101076.47
2023-04-05T02:43:42.914Z,101080.97
2023-04-05T02:46:10.669Z,101086.25
2023-04-05T02:48:50.119Z,101082.97
2023-04-05T02:51:21.842Z,101078.53
2023-04-05T02:53:53.053Z,101071.19
2023-04-05T02:56:23.547Z,101076.53
2023-04-05T02:58:54.721Z,101079.72
2023-04-05T03:01:32.917Z,101077.28
2023-04-05T03:04:04.037Z,101078.38
2023-04-05T03:06:34.929Z,101080.78
2023-04-05T03:09:04.399Z,101073.16
2023-04-05T03:11:35.049Z,101065.88
2023-04-05T03:14:05.526Z,101073.94
2023-04-05T03:16:47.723Z,101073.59
2023-04-05T03:19:35.654Z,101071.06
2023-04-05T03:22:22.653Z,101077.09
2023-04-05T03:24:54.910Z,101075.47
2023-04-05T03:27:29.632Z,101067.00
2023-04-05T03:30:21.899Z,101061.28
2023-04-05T03:33:01.359Z,101071.28
2023-04-05T03:35:55.013Z,101064.09
2023-04-05T03:38:29.032Z,101078.19
2023-04-05T03:41:16.181Z,101069.72
2023-04-05T03:43:46.905Z,101075.38
2023-04-05T03:46:14.574Z,101071.75
2023-04-05T03:48:47.401Z,101073.03
2023-04-05T03:51:19.024Z,101068.19
2023-04-05T03:53:56.412Z,101075.38
2023-04-05T03:56:32.284Z,101071.75
2023-04-05T03:59:10.279Z,101077.47
2023-04-05T04:01:47.526Z,101082.28
2023-04-05T04:04:21.261Z,101074.56
2023-04-05T04:06:54.662Z,101071.28
2023-04-05T04:09:30.753Z,101078.66
2023-04-05T04:12:13.919Z,101072.13
2023-04-05T04:14:56.050Z,101072.56
2023-04-05T04:17:49.173Z,101069.41
2023-04-05T04:20:45.946Z,101072.22
2023-04-05T04:23:30.560Z,101064.84
2023-04-05T04:26:29.248Z,101062.84
2023-04-05T04:29:33.586Z,101063.69
2023-04-05T04:32:27.969Z,101068.19
2023-04-05T04:35:14.561Z,101058.41
2023-04-05T04:38:06.149Z,101069.31
2023-04-05T04:40:51.142Z,101067.41
2023-04-05T04:43:42.968Z,101068.19
2023-04-05T04:46:42.875Z,101069.66
2023-04-05T04:49:18.002Z,101062.09
2023-04-05T04:51:52.908Z,101069.41
2023-04-05T04:54:28.878Z,101076.16
2023-04-05T04:57:02.557Z,101081.00
2023-04-05T04:59:35.586Z,101074.28
2023-04-05T05:02:12.499Z,101077.91
2023-04-05T05:04:44.018Z,101074.66
2023-04-05T05:07:18.873Z,101077.75
2023-04-05T05:09:52.475Z,101083.91
2023-04-05T05:12:21.102Z,101079.91
2023-04-05T05:14:53.956Z,101084.31
2023-04-05T05:17:29.270Z,101080.34
2023-04-05T05:20:00.539Z,101080.34
2023-04-05T05:22:31.971Z,101080.78
2023-04-05T05:25:10.025Z,101090.81
2023-04-05T05:27:44.050Z,101093.75
2023-04-05T05:30:15.912Z,101097.38
2023-04-05T05:32:58.305Z,101090.28
2023-04-05T05:35:32.235Z,101086.25
2023-04-05T05:38:02.724Z,101091.81
2023-04-05T05:40:36.051Z,101098.06
2023-04-05T05:43:06.456Z,101089.19
2023-04-05T05:45:36.605Z,101104.53
2023-04-05T05:48:09.022Z,101108.53
2023-04-05T05:50:39.613Z,101104.44
2023-04-05T05:53:16.500Z,101102.19
2023-04-05T05:55:47.293Z,101102.59
2023-04-05T05:58:21.236Z,101101.44
2023-04-05T06:00:51.614Z,101104.31
2023-04-05T06:03:19.384Z,101107.88
2023-04-05T06:05:59.987Z,101109.16
2023-04-05T06:08:33.821Z,101115.66
2023-04-05T06:11:05.208Z,101114.59
2023-04-05T06:13:39.185Z,101113.84
2023-04-05T06:16:07.407Z,101108.31
2023-04-05T06:18:47.146Z,101110.13
2023-04-05T06:21:17.722Z,101104.28
2023-04-05T06:23:53.497Z,101113.06
2023-04-05T06:26:27.445Z,101107.88
2023-04-05T06:29:00.908Z,101110.28
2023-04-05T06:31:42.321Z,101105.50
2023-04-05T06:34:12.044Z,101104.69
2023-04-05T06:36:47.439Z,101107.25
2023-04-05T06:39:17.914Z,101111.06
2023-04-05T06:41:58.717Z,101107.06
2023-04-05T06:44:33.696Z,101120.63
2023-04-05T06:47:04.909Z,101105.06
2023-04-05T06:49:38.467Z,101109.28
2023-04-05T06:52:07.812Z,101116.63
2023-04-05T06:54:47.253Z,101109.88
2023-04-05T06:57:20.441Z,101109.03
2023-04-05T07:00:00.483Z,101105.53
2023-04-05T07:02:37.516Z,101106.81
2023-04-05T07:05:10.056Z,101107.25
2023-04-05T07:07:45.987Z,101116.97
2023-04-05T07:10:20.957Z,101102.88
2023-04-05T07:12:52.648Z,101114.66
2023-04-05T07:15:21.023Z,101107.56
2023-04-05T07:17:49.365Z,101106.50
2023-04-05T07:20:23.014Z,101116.84
2023-04-05T07:22:59.088Z,101114.13
2023-04-05T07:25:27.870Z,101112.16
2023-04-05T07:27:58.910Z,101111.94
2023-04-05T07:30:29.627Z,101116.13
2023-04-05T07:32:58.588Z,101117.19
2023-04-05T07:35:29.863Z,101116.50
2023-04-05T07:38:03.661Z,101114.06
2023-04-05T07:40:37.079Z,101115.66
2023-04-05T07:43:07.754Z,101121.34
2023-04-05T07:45:38.815Z,101126.72
2023-04-05T07:48:12.011Z,101132.59
2023-04-05T07:50:49.990Z,101124.63
2023-04-05T07:53:20.749Z,101133.06
2023-04-05T07:55:54.059Z,101131.38
2023-04-05T07:58:23.354Z,101137.72
2023-04-05T08:00:57.428Z,101140.53
2023-04-05T08:03:35.155Z,101140.41
2023-04-05T08:06:25.063Z,101145.81
2023-04-05T08:09:03.905Z,101138.78
2023-04-05T08:11:40.588Z,101146.91
2023-04-05T08:14:11.060Z,101141.94
2023-04-05T08:16:46.817Z,101139.41
2023-04-05T08:19:18.372Z,101148.31
2023-04-05T08:21:56.194Z,101141.94
2023-04-05T08:24:33.517Z,101145.44
2023-04-05T08:27:14.963Z,101151.63
2023-04-05T08:29:56.813Z,101147.50
2023-04-05T08:32:35.523Z,101141.84
2023-04-05T08:35:08.888Z,101152.31
2023-04-05T08:37:42.981Z,101140.56
2023-04-05T08:40:23.537Z,101148.31
2023-04-05T08:43:11.950Z,101154.84
2023-04-05T08:46:01.414Z,101142.44
2023-04-05T08:48:39.374Z,101154.97
2023-04-05T08:51:13.701Z,101142.41
2023-04-05T08:53:45.654Z,101143.81
2023-04-05T08:56:17.556Z,101143.84
2023-04-05T08:59:00.349Z,101147.13
2023-04-05T09:01:38.216Z,101140.22
2023-04-05T09:04:12.864Z,101149.09
2023-04-05T09:06:48.091Z,101145.47
2023-04-05T09:09:26.445Z,101144.69
2023-04-05T09:11:58.530Z,101143.44
2023-04-05T09:14:38.954Z,101151.53
2023-04-05T09:17:12.698Z,101139.28
2023-04-05T09:19:51.527Z,101134.06
2023-04-05T09:22:31.373Z,101134.47
2023-04-05T09:25:10.721Z,101127.53
2023-04-05T09:27:58.985Z,101131.13
2023-04-05T09:30:38.619Z,101140.44
2023-04-05T09:33:30.448Z,101131.25
2023-04-05T09:36:06.319Z,101134.22
2023-04-05T09:38:47.840Z,101138.78
2023-04-05T09:41:21.722Z,101125.03
2023-04-05T09:43:49.369Z,101131.88
2023-04-05T09:46:39.679Z,101127.00
2023-04-05T09:49:18.986Z,101133.81
2023-04-05T09:51:56.728Z,101125.28
2023-04-05T09:54:30.728Z,101118.41
2023-04-05T09:57:03.387Z,101125.25
2023-04-05T09:59:33.594Z,101123.59
2023-04-05T10:02:10.635Z,101123.13
2023-04-05T10:04:50.024Z,101124.72
2023-04-05T10:07:25.562Z,101125.09
2023-04-05T10:09:56.080Z,101117.81
2023-04-05T10:12:28.572Z,101120.69
2023-04-05T10:15:05.400Z,101110.53
2023-04-05T10:18:03.865Z,101113.31
2023-04-05T10:20:43.306Z,101103.59
2023-04-05T10:23:23.371Z,101105.34
2023-04-05T10:26:08.571Z,101107.25
2023-04-05T10:28:47.889Z,101103.63
2023-04-05T10:31:55.779Z,101099.31
2023-04-05T10:35:00.995Z,101100.47
2023-04-05T10:37:37.250Z,101111.94
2023-04-05T10:40:17.066Z,101099.50
2023-04-05T10:42:49.168Z,101103.53
2023-04-05T10:45:23.288Z,101094.38
2023-04-05T10:47:59.898Z,101094.00
2023-04-05T10:50:30.863Z,101086.53
2023-04-05T10:53:03.289Z,101086.97
2023-04-05T10:55:31.965Z,101093.09
2023-04-05T10:58:06.726Z,101098.66
2023-04-05T11:00:36.989Z,101093.03
2023-04-05T11:03:10.224Z,101089.81
2023-04-05T11:05:40.910Z,101083.31
2023-04-05T11:08:12.749Z,101082.44
2023-04-05T11:10:54.664Z,101077.13
2023-04-05T11:13:52.757Z,101083.13
2023-04-05T11:16:22.495Z,101079.47
2023-04-05T11:18:56.353Z,101076.16
2023-04-05T11:21:26.180Z,101072.09
2023-04-05T11:24:17.922Z,101072.88
2023-04-05T11:26:54.725Z,101070.38
2023-04-05T11:29:52.241Z,101060.25
2023-04-05T11:32:46.757Z,101055.72
2023-04-05T11:35:23.175Z,101060.19
2023-04-05T11:38:00.749Z,101047.66
2023-04-05T11:40:37.410Z,101048.50
2023-04-05T11:43:12.424Z,101047.72
2023-04-05T11:45:48.010Z,101045.31
2023-04-05T11:48:22.901Z,101043.28
2023-04-05T11:50:54.700Z,101037.19
2023-04-05T11:53:22.800Z,101042.03
2023-04-05T11:55:55.533Z,101045.69
2023-04-05T11:58:25.841Z,101036.06
2023-04-05T12:01:09.776Z,101027.09
2023-04-05T12:03:41.288Z,101027.09
2023-04-05T12:06:09.629Z,101025.94
2023-04-05T12:08:42.276Z,101027.97
2023-04-05T12:11:22.886Z,101032.00
2023-04-05T12:13:58.601Z,101025.44
2023-04-05T12:16:32.469Z,101024.25
2023-04-05T12:19:03.912Z,101010.44
2023-04-05T12:21:39.106Z,101023.41
2023-04-05T12:24:10.765Z,101018.19
2023-04-05T12:26:43.268Z,101017.69
2023-04-05T12:29:17.913Z,101016.56
2023-04-05T12:31:55.371Z,101018.59
2023-04-05T12:34:33.895Z,101019.09
2023-04-05T12:37:08.074Z,101009.81
2023-04-05T12:39:47.663Z,101009.75
2023-04-05T12:42:22.728Z,101013.84
2023-04-05T12:45:15.316Z,100998.84
2023-04-05T12:48:00.120Z,100995.59
2023-04-05T12:50:34.614Z,100993.63
2023-04-05T12:53:23.414Z,100998.00
2023-04-05T12:56:00.741Z,100985.00
2023-04-05T12:58:40.739Z,100982.53
2023-04-05T13:01:13.899Z,100988.16
2023-04-05T13:03:58.924Z,100985.75
2023-04-05T13:06:39.589Z,100984.13
2023-04-05T13:09:18.485Z,100985.72
2023-04-05T13:12:04.595Z,100971.16
2023-04-05T13:14:35.720Z,100976.00
2023-04-05T13:17:14.202Z,100974.41
2023-04-05T13:19:48.404Z,100975.19
2023-04-05T13:22:20.935Z,100969.94
2023-04-05T13:24:55.539Z,100957.81
2023-04-05T13:27:25.810Z,100966.69
2023-04-05T13:30:05.153Z,100962.66
2023-04-05T13:32:41.552Z,100962.97
2023-04-05T13:35:15.399Z,100963.41
2023-04-05T13:37:51.346Z,100954.97
2023-04-05T13:40:26.169Z,100964.69
2023-04-05T13:43:06.759Z,100950.50
2023-04-05T13:45:39.441Z,100950.44
2023-04-05T13:48:15.517Z,100954.44
2023-04-05T13:50:53.176Z,100946.34
2023-04-05T13:53:28.482Z,100943.50
2023-04-05T13:56:03.121Z,100945.50
2023-04-05T13:58:35.705Z,100935.41
2023-04-05T14:01:09.521Z,100939.84
2023-04-05T14:03:40.773Z,100932.91
2023-04-05T14:06:16.465Z,100930.53
2023-04-05T14:08:55.015Z,100936.53
2023-04-05T14:11:25.705Z,100928.06
2023-04-05T14:13:59.175Z,100939.31
2023-04-05T14:16:30.520Z,100922.41
2023-04-05T14:19:03.560Z,100918.75
2023-04-05T14:21:37.460Z,100921.94
2023-04-05T14:24:07.998Z,100922.34
2023-04-05T14:26:41.761Z,100920.75
2023-04-05T14:29:10.649Z,100922.34
2023-04-05T14:31:43.895Z,100923.94
2023-04-05T14:34:12.548Z,100924.75
2023-04-05T14:36:43.574Z,100925.63
2023-04-05T14:39:20.024Z,100916.69
2023-04-05T14:41:56.851Z,100919.97
2023-04-05T14:44:34.633Z,100913.44
2023-04-05T14:47:14.991Z,100914.66
2023-04-05T14:49:48.217Z,100910.22
2023-04-05T14:52:21.048Z,100910.22
2023-04-05T14:54:57.436Z,100913.41
2023-04-05T14:57:34.176Z,100905.38
2023-04-05T15:00:12.886Z,100908.59
2023-04-05T15:02:49.000Z,100902.53
2023-04-05T15:05:25.251Z,100905.75
2023-04-05T15:07:53.355Z,100907.38
2023-04-05T15:10:23.379Z,100908.59
2023-04-05T15:12:54.366Z,100906.97
2023-04-05T15:15:22.610Z,100911.00
2023-04-05T15:17:55.669Z,100908.56
2023-04-05T15:20:30.273Z,100900.97
2023-04-05T15:22:58.450Z,100907.88
2023-04-05T15:25:29.990Z,100902.16
2023-04-05T15:28:06.742Z,100908.31
2023-04-05T15:30:43.470Z,100903.03
2023-04-05T15:33:20.829Z,100900.72
2023-04-05T15:35:48.951Z,100903.63
2023-04-05T15:38:22.924Z,100895.13
2023-04-05T15:40:59.337Z,100897.59
2023-04-05T15:43:31.157Z,100898.00
2023-04-05T15:46:04.597Z,100896.78
2023-04-05T15:48:38.655Z,100893.53
2023-04-05T15:51:13.174Z,100900.78
2023-04-05T15:53:46.967Z,100899.13
2023-04-05T15:56:20.853Z,100893.09
2023-04-05T15:59:00.665Z,100889.91
2023-04-05T16:01:35.126Z,100894.75
2023-04-05T16:04:10.293Z,100889.84
2023-04-05T16:06:45.724Z,100883.31
2023-04-05T16:09:18.789Z,100892.69
2023-04-05T16:11:52.836Z,100888.63
2023-04-05T16:14:29.588Z,100888.63
2023-04-05T16:17:02.907Z,100883.75
2023-04-05T16:19:31.564Z,100880.47
2023-04-05T16:22:08.082Z,100884.53
2023-04-05T16:25:03.384Z,100889.25
2023-04-05T16:27:44.459Z,100892.84
2023-04-05T16:30:26.776Z,100890.47
2023-04-05T16:33:07.366Z,100890.81
2023-04-05T16:35:52.296Z,100898.13
2023-04-05T16:38:33.978Z,100892.84
2023-04-05T16:41:15.928Z,100904.56
2023-04-05T16:43:56.150Z,100898.47
2023-04-05T16:46:34.365Z,100896.00
2023-04-05T16:49:12.544Z,100898.81
2023-04-05T16:51:56.511Z,100907.72
2023-04-05T16:54:38.188Z,100899.66
2023-04-05T16:57:19.662Z,100915.38
2023-04-05T17:00:01.857Z,100910.13
2023-04-05T17:02:37.690Z,100917.03
2023-04-05T17:05:34.156Z,100917.41
2023-04-05T17:08:13.204Z,100914.16
2023-04-05T17:11:01.156Z,100918.56
2023-04-05T17:13:41.890Z,100924.63
2023-04-05T17:16:20.874Z,100924.25
2023-04-05T17:19:01.915Z,100923.84
2023-04-05T17:21:47.339Z,100918.19
2023-04-05T17:24:24.392Z,100921.78
2023-04-05T17:27:02.072Z,100930.19
2023-04-05T17:29:49.178Z,100918.91
2023-04-05T17:32:27.590Z,100940.69
2023-04-05T17:35:07.746Z,100931.41
2023-04-05T17:37:57.959Z,100934.63
2023-04-05T17:40:33.665Z,100931.81
2023-04-05T17:43:10.830Z,100939.84
2023-04-05T17:45:57.699Z,100939.03
2023-04-05T17:48:33.468Z,100937.44
2023-04-05T17:51:16.429Z,100937.41
2023-04-05T17:54:00.840Z,100948.31
2023-04-05T17:56:55.949Z,100946.22
2023-04-05T17:59:34.196Z,100953.09
2023-04-05T18:02:18.366Z,100955.88
2023-04-05T18:05:00.048Z,100964.72
2023-04-05T18:07:56.126Z,100972.41
2023-04-05T18:10:36.033Z,100974.81
2023-04-05T18:13:15.982Z,100968.66
2023-04-05T18:16:03.480Z,100981.25
2023-04-05T18:18:45.036Z,100974.78
2023-04-05T18:21:16.178Z,100981.19
2023-04-05T18:23:56.631Z,100984.00
2023-04-05T18:26:39.962Z,100989.63
2023-04-05T18:29:30.509Z,100991.19
2023-04-05T18:32:12.796Z,101009.34
2023-04-05T18:34:58.360Z,101002.09
2023-04-05T18:37:37.847Z,101010.16
2023-04-05T18:40:20.691Z,101018.63
2023-04-05T18:42:59.261Z,101027.53
2023-04-05T18:45:41.088Z,101029.13
2023-04-05T18:48:20.603Z,101031.16
2023-04-05T18:50:59.592Z,101029.16
2023-04-05T18:53:42.300Z,101044.81
2023-04-05T18:56:29.888Z,101039.59
2023-04-05T18:59:03.228Z,101046.06
2023-04-05T19:01:50.019Z,101045.59
2023-04-05T19:04:26.749Z,101052.03
2023-04-05T19:07:08.079Z,101058.91
2023-04-05T19:09:47.187Z,101055.63
2023-04-05T19:12:28.950Z,101061.28
2023-04-05T19:15:07.443Z,101067.00
2023-04-05T19:17:47.467Z,101060.47
2023-04-05T19:20:27.961Z,101061.56
2023-04-05T19:23:12.193Z,101081.78
2023-04-05T19:25:49.235Z,101080.09
2023-04-05T19:28:29.089Z,101083.22
2023-04-05T19:31:06.674Z,101074.44
2023-04-05T19:33:46.943Z,101089.34
2023-04-05T19:36:24.810Z,101080.84
2023-04-05T19:39:06.626Z,101085.69
2023-04-05T19:41:48.177Z,101088.47
2023-04-05T19:44:51.045Z,101090.91
2023-04-05T19:47:34.076Z,101095.69
2023-04-05T19:50:34.494Z,101087.59
2023-04-05T19:53:13.188Z,101097.25
2023-04-05T19:55:48.933Z,101088.78
2023-04-05T19:58:34.283Z,101108.09
2023-04-05T20:01:49.980Z,101104.91
2023-04-05T20:04:31.923Z,101101.28
2023-04-05T20:07:20.265Z,101100.84
2023-04-05T20:10:01.373Z,101106.44
2023-04-05T20:12:34.352Z,101109.72
2023-04-05T20:15:32.250Z,101112.91
2023-04-05T20:18:09.467Z,101118.53
2023-04-05T20:20:53.712Z,101118.09
2023-04-05T20:23:34.070Z,101114.50
2023-04-05T20:26:16.308Z,101118.94
2023-04-05T20:28:54.158Z,101119.69
2023-04-05T20:31:39.103Z,101126.19
2023-04-05T20:34:22.284Z,101126.16
2023-04-05T20:37:10.382Z,101128.53
2023-04-05T20:39:56.124Z,101129.28
2023-04-05T20:42:35.425Z,101131.75
2023-04-05T20:45:22.753Z,101135.34
2023-04-05T20:48:03.942Z,101138.53
2023-04-05T20:50:42.156Z,101143.00
2023-04-05T20:53:15.943Z,101148.19
2023-04-05T20:55:59.168Z,101142.94
2023-04-05T20:58:38.687Z,101146.97
2023-04-05T21:01:23.880Z,101157.91
2023-04-05T21:04:05.114Z,101154.16
2023-04-05T21:06:49.280Z,101152.09
2023-04-05T21:09:28.428Z,101158.63
2023-04-05T21:12:04.092Z,101160.69
2023-04-05T21:14:45.026Z,101166.28
2023-04-05T21:17:26.490Z,101169.00
2023-04-05T21:20:12.871Z,101164.56
2023-04-05T21:22:51.800Z,101165.81
2023-04-05T21:25:34.389Z,101164.97
2023-04-05T21:28:12.840Z,101162.13
2023-04-05T21:30:54.495Z,101166.09
2023-04-05T21:33:32.453Z,101169.78
2023-04-05T21:36:09.339Z,101174.50
2023-04-05T21:38:50.712Z,101175.31
2023-04-05T21:41:28.758Z,101166.44
2023-04-05T21:44:18.250Z,101172.09
2023-04-05T21:46:57.726Z,101176.47
2023-04-05T21:49:41.955Z,101182.56
2023-04-05T21:52:21.772Z,101175.66
2023-04-05T21:55:05.808Z,101182.56
2023-04-05T21:57:42.537Z,101180.91
2023-04-05T22:00:21.149Z,101188.19
2023-04-05T22:03:10.383Z,101173.25
2023-04-05T22:05:54.336Z,101178.91
2023-04-05T22:08:36.353Z,101187.31
2023-04-05T22:11:20.776Z,101184.50
2023-04-05T22:14:01.851Z,101186.09
2023-04-05T22:16:40.780Z,101185.25
2023-04-05T22:19:23.611Z,101189.25
2023-04-05T22:22:09.296Z,101183.19
2023-04-05T22:24:44.507Z,101189.66
2023-04-05T22:27:25.895Z,101191.63
2023-04-05T22:30:10.008Z,101188.00
2023-04-05T22:32:51.936Z,101193.59
2023-04-05T22:35:37.430Z,101194.34
2023-04-05T22:38:24.252Z,101197.22
2023-04-05T22:41:06.446Z,101195.53
2023-04-05T22:43:45.697Z,101196.75
2023-04-05T22:46:15.154Z,101197.56
2023-04-05T22:48:55.344Z,101202.75
2023-04-05T22:51:43.015Z,101189.84
2023-04-05T22:54:25.631Z,101194.69
2023-04-05T22:57:11.522Z,101197.50
2023-04-05T22:59:53.160Z,101201.88
2023-04-05T23:02:34.859Z,101198.66
2023-04-05T23:05:13.283Z,101200.31
2023-04-05T23:07:56.782Z,101195.44
2023-04-05T23:10:38.609Z,101202.69
2023-04-05T23:13:24.944Z,101203.06
2023-04-05T23:16:07.472Z,101198.25
2023-04-05T23:18:41.633Z,101197.44
2023-04-05T23:21:29.632Z,101200.63
2023-04-05T23:24:11.082Z,101207.47
2023-04-05T23:26:45.097Z,101204.19
2023-04-05T23:29:26.136Z,101212.28
2023-04-05T23:32:13.630Z,101212.19
2023-04-05T23:35:04.118Z,101209.75
2023-04-05T23:37:40.464Z,101213.78
2023-04-05T23:40:13.930Z,101216.97
2023-04-05T23:42:55.847Z,101216.97
2023-04-05T23:45:32.459Z,101213.31
2023-04-05T23:48:19.179Z,101211.25
2023-04-05T23:50:58.518Z,101212.06
2023-04-05T23:53:39.518Z,101214.88
2023-04-05T23:56:18.308Z,101218.09
2023-04-05T23:59:02.403Z,101210.00
